sensor_id;sensor_type;location;lat;lon;timestamp;pressure;altitude;pressure_sealevel;temperature;humidity
7836;BME280;3963;42.658;23.298;2023-03-14T00:01:58;58319.25;;;2.08;98.12
7836;BME280;3963;42.658;23.298;2023-03-14T00:04:25;58322.50;;;2.29;96.91
7836;BME280;3963;42.658;23.298;2023-03-14T00:06:53;58329.63;;;2.28;95.23
7836;BME280;3963;42.658;23.298;2023-03-14T00:09:20;58303.50;;;2.10;94.33
7836;BME280;3963;42.658;23.298;2023-03-14T00:11:47;58263.38;;;2.01;94.09
7836;BME280;3963;42.658;23.298;2023-03-14T00:14:13;58297.88;;;1.95;94.61
7836;BME280;3963;42.658;23.298;2023-03-14T00:16:42;58283.56;;;1.94;93.85
7836;BME280;3963;42.658;23.298;2023-03-14T00:19:11;58286.47;;;1.89;94.26
7836;BME280;3963;42.658;23.298;2023-03-14T00:21:38;58317.78;;;1.80;95.65
7836;BME280;3963;42.658;23.298;2023-03-14T00:24:07;58254.28;;;1.73;97.48
7836;BME280;3963;42.658;23.298;2023-03-14T00:26:34;58276.63;;;1.70;98.36
7836;BME280;3963;42.658;23.298;2023-03-14T00:29:01;58253.41;;;1.77;98.99
7836;BME280;3963;42.658;23.298;2023-03-14T00:31:28;58265.53;;;1.74;99.09
7836;BME280;3963;42.658;23.298;2023-03-14T00:33:55;58267.28;;;1.81;98.15
7836;BME280;3963;42.658;23.298;2023-03-14T00:36:22;58254.28;;;1.58;97.97
7836;BME280;3963;42.658;23.298;2023-03-14T00:38:50;58243.41;;;1.53;98.67
7836;BME280;3963;42.658;23.298;2023-03-14T00:41:20;58245.53;;;1.55;100.00
7836;BME280;3963;42.658;23.298;2023-03-14T00:43:48;58275.41;;;1.49;100.00
7836;BME280;3963;42.658;23.298;2023-03-14T00:46:16;58227.25;;;1.42;100.00
7836;BME280;3963;42.658;23.298;2023-03-14T00:48:44;58234.91;;;1.42;100.00
7836;BME280;3963;42.658;23.298;2023-03-14T00:51:11;58243.59;;;1.43;100.00
7836;BME280;3963;42.658;23.298;2023-03-14T00:53:41;58204.53;;;1.50;100.00
7836;BME280;3963;42.658;23.298;2023-03-14T00:56:10;58234.97;;;1.59;100.00
7836;BME280;3963;42.658;23.298;2023-03-14T00:58:39;58233.81;;;1.56;100.00
7836;BME280;3963;42.658;23.298;2023-03-14T01:01:07;58209.25;;;1.37;100.00
7836;BME280;3963;42.658;23.298;2023-03-14T01:03:35;58223.44;;;1.51;100.00
7836;BME280;3963;42.658;23.298;2023-03-14T01:06:10;58243.47;;;1.55;100.00
7836;BME280;3963;42.658;23.298;2023-03-14T01:08:37;58220.56;;;1.41;100.00
7836;BME280;3963;42.658;23.298;2023-03-14T01:11:08;58207.38;;;1.43;100.00
7836;BME280;3963;42.658;23.298;2023-03-14T01:13:36;58228.03;;;1.50;100.00
7836;BME280;3963;42.658;23.298;2023-03-14T01:16:06;58217.22;;;1.47;100.00
7836;BME280;3963;42.658;23.298;2023-03-14T01:18:34;58227.94;;;1.48;100.00
7836;BME280;3963;42.658;23.298;2023-03-14T01:21:01;58244.56;;;1.42;100.00
7836;BME280;3963;42.658;23.298;2023-03-14T01:23:28;58203.16;;;1.39;100.00
7836;BME280;3963;42.658;23.298;2023-03-14T01:25:55;58235.59;;;1.33;100.00
7836;BME280;3963;42.658;23.298;2023-03-14T01:28:21;58185.78;;;1.37;100.00
7836;BME280;3963;42.658;23.298;2023-03-14T01:30:48;58233.06;;;1.33;100.00
7836;BME280;3963;42.658;23.298;2023-03-14T01:33:16;58210.38;;;1.26;100.00
7836;BME280;3963;42.658;23.298;2023-03-14T01:35:43;58181.56;;;1.18;100.00
7836;BME280;3963;42.658;23.298;2023-03-14T01:38:10;58215.47;;;1.26;100.00
7836;BME280;3963;42.658;23.298;2023-03-14T01:40:42;58177.34;;;1.14;100.00
7836;BME280;3963;42.658;23.298;2023-03-14T01:43:14;58143.34;;;1.18;100.00
7836;BME280;3963;42.658;23.298;2023-03-14T01:48:51;58100.25;;;0.94;100.00
7836;BME280;3963;42.658;23.298;2023-03-14T01:51:22;58118.53;;;0.92;100.00
7836;BME280;3963;42.658;23.298;2023-03-14T01:53:53;58150.34;;;0.98;100.00
7836;BME280;3963;42.658;23.298;2023-03-14T01:56:22;58144.25;;;0.99;100.00
7836;BME280;3963;42.658;23.298;2023-03-14T01:58:50;58139.41;;;1.07;100.00
7836;BME280;3963;42.658;23.298;2023-03-14T02:01:20;58215.16;;;1.16;100.00
7836;BME280;3963;42.658;23.298;2023-03-14T02:03:52;58149.09;;;1.06;100.00
7836;BME280;3963;42.658;23.298;2023-03-14T02:06:23;58154.72;;;0.92;100.00
7836;BME280;3963;42.658;23.298;2023-03-14T02:08:51;58165.63;;;0.98;100.00
7836;BME280;3963;42.658;23.298;2023-03-14T02:11:18;58179.66;;;1.06;100.00
7836;BME280;3963;42.658;23.298;2023-03-14T02:13:47;58185.38;;;1.09;100.00
7836;BME280;3963;42.658;23.298;2023-03-14T02:16:14;58142.41;;;1.05;100.00
7836;BME280;3963;42.658;23.298;2023-03-14T02:18:41;58163.84;;;1.06;100.00
7836;BME280;3963;42.658;23.298;2023-03-14T02:21:14;58143.22;;;0.98;100.00
7836;BME280;3963;42.658;23.298;2023-03-14T02:23:50;58164.63;;;0.99;100.00
7836;BME280;3963;42.658;23.298;2023-03-14T02:26:22;58178.63;;;0.91;100.00
7836;BME280;3963;42.658;23.298;2023-03-14T02:28:54;58158.75;;;1.06;100.00
7836;BME280;3963;42.658;23.298;2023-03-14T02:31:22;58146.56;;;0.92;100.00
7836;BME280;3963;42.658;23.298;2023-03-14T02:33:49;58141.88;;;1.04;100.00
7836;BME280;3963;42.658;23.298;2023-03-14T02:36:19;58177.03;;;1.04;100.00
7836;BME280;3963;42.658;23.298;2023-03-14T02:38:51;58164.38;;;0.92;100.00
7836;BME280;3963;42.658;23.298;2023-03-14T02:41:19;58106.44;;;0.80;100.00
7836;BME280;3963;42.658;23.298;2023-03-14T02:43:46;58134.47;;;0.66;100.00
7836;BME280;3963;42.658;23.298;2023-03-14T02:46:17;58154.72;;;0.78;100.00
7836;BME280;3963;42.658;23.298;2023-03-14T02:48:48;58156.47;;;0.84;100.00
7836;BME280;3963;42.658;23.298;2023-03-14T02:51:16;58144.09;;;0.94;100.00
7836;BME280;3963;42.658;23.298;2023-03-14T02:53:43;58168.31;;;1.03;100.00
7836;BME280;3963;42.658;23.298;2023-03-14T02:56:10;58154.19;;;1.06;100.00
7836;BME280;3963;42.658;23.298;2023-03-14T02:58:37;58119.31;;;1.00;100.00
7836;BME280;3963;42.658;23.298;2023-03-14T03:01:04;58154.53;;;1.02;100.00
7836;BME280;3963;42.658;23.298;2023-03-14T03:03:33;58149.88;;;1.00;100.00
7836;BME280;3963;42.658;23.298;2023-03-14T03:06:00;58170.53;;;0.93;100.00
7836;BME280;3963;42.658;23.298;2023-03-14T03:08:27;58144.66;;;0.80;100.00
7836;BME280;3963;42.658;23.298;2023-03-14T03:10:56;58115.41;;;0.74;100.00
7836;BME280;3963;42.658;23.298;2023-03-14T03:13:23;58099.19;;;0.61;100.00
7836;BME280;3963;42.658;23.298;2023-03-14T03:15:50;58087.28;;;0.40;100.00
7836;BME280;3963;42.658;23.298;2023-03-14T03:18:16;58091.06;;;0.31;100.00
7836;BME280;3963;42.658;23.298;2023-03-14T03:20:45;58052.88;;;0.31;100.00
7836;BME280;3963;42.658;23.298;2023-03-14T03:23:12;58079.91;;;0.33;100.00
7836;BME280;3963;42.658;23.298;2023-03-14T03:25:39;58074.28;;;0.47;100.00
7836;BME280;3963;42.658;23.298;2023-03-14T03:28:05;58113.16;;;0.52;100.00
7836;BME280;3963;42.658;23.298;2023-03-14T03:30:34;58053.72;;;0.57;100.00
7836;BME280;3963;42.658;23.298;2023-03-14T03:33:03;58100.59;;;0.57;100.00
7836;BME280;3963;42.658;23.298;2023-03-14T03:35:30;58078.28;;;0.61;100.00
7836;BME280;3963;42.658;23.298;2023-03-14T03:37:58;58106.75;;;0.59;100.00
7836;BME280;3963;42.658;23.298;2023-03-14T03:40:25;58090.75;;;0.68;100.00
7836;BME280;3963;42.658;23.298;2023-03-14T03:42:52;58083.28;;;0.58;100.00
7836;BME280;3963;42.658;23.298;2023-03-14T03:45:19;58097.97;;;0.55;100.00
7836;BME280;3963;42.658;23.298;2023-03-14T03:47:45;58120.25;;;0.67;100.00
7836;BME280;3963;42.658;23.298;2023-03-14T03:50:12;58099.97;;;0.54;100.00
7836;BME280;3963;42.658;23.298;2023-03-14T03:52:39;58096.03;;;0.58;100.00
7836;BME280;3963;42.658;23.298;2023-03-14T03:55:08;58122.63;;;0.47;100.00
7836;BME280;3963;42.658;23.298;2023-03-14T03:57:35;58075.72;;;0.29;100.00
7836;BME280;3963;42.658;23.298;2023-03-14T04:00:02;58042.72;;;0.31;100.00
7836;BME280;3963;42.658;23.298;2023-03-14T04:02:30;58093.34;;;0.38;100.00
7836;BME280;3963;42.658;23.298;2023-03-14T04:04:57;58068.41;;;0.24;100.00
7836;BME280;3963;42.658;23.298;2023-03-14T04:07:24;58057.03;;;0.18;100.00
7836;BME280;3963;42.658;23.298;2023-03-14T04:09:50;58034.03;;;0.16;100.00
7836;BME280;3963;42.658;23.298;2023-03-14T04:12:19;58042.19;;;0.31;100.00
7836;BME280;3963;42.658;23.298;2023-03-14T04:14:46;58090.44;;;0.28;100.00
7836;BME280;3963;42.658;23.298;2023-03-14T04:17:13;58024.75;;;0.26;100.00
7836;BME280;3963;42.658;23.298;2023-03-14T04:19:39;58047.09;;;0.26;100.00
7836;BME280;3963;42.658;23.298;2023-03-14T04:22:07;58049.22;;;0.13;100.00
7836;BME280;3963;42.658;23.298;2023-03-14T04:24:34;58019.31;;;0.16;100.00
7836;BME280;3963;42.658;23.298;2023-03-14T04:27:01;58039.13;;;0.16;100.00
7836;BME280;3963;42.658;23.298;2023-03-14T04:29:29;57997.06;;;0.05;100.00
7836;BME280;3963;42.658;23.298;2023-03-14T04:31:55;57996.47;;;-0.13;100.00
7836;BME280;3963;42.658;23.298;2023-03-14T04:34:22;58034.88;;;-0.06;100.00
7836;BME280;3963;42.658;23.298;2023-03-14T04:36:49;58047.41;;;0.04;100.00
7836;BME280;3963;42.658;23.298;2023-03-14T04:39:16;58060.56;;;0.02;100.00
7836;BME280;3963;42.658;23.298;2023-03-14T04:41:44;58026.19;;;0.08;100.00
7836;BME280;3963;42.658;23.298;2023-03-14T04:44:11;58010.56;;;-0.02;100.00
7836;BME280;3963;42.658;23.298;2023-03-14T04:46:39;58019.38;;;-0.13;100.00
7836;BME280;3963;42.658;23.298;2023-03-14T04:49:05;57980.94;;;-0.06;100.00
7836;BME280;3963;42.658;23.298;2023-03-14T04:51:33;58031.44;;;-0.02;100.00
7836;BME280;3963;42.658;23.298;2023-03-14T04:54:00;57997.44;;;0.00;100.00
7836;BME280;3963;42.658;23.298;2023-03-14T04:56:26;58068.28;;;0.05;100.00
7836;BME280;3963;42.658;23.298;2023-03-14T04:58:53;58028.34;;;0.13;100.00
7836;BME280;3963;42.658;23.298;2023-03-14T05:01:20;58043.44;;;0.08;100.00
7836;BME280;3963;42.658;23.298;2023-03-14T05:03:48;58041.00;;;0.10;100.00
7836;BME280;3963;42.658;23.298;2023-03-14T05:06:15;58005.97;;;0.13;100.00
7836;BME280;3963;42.658;23.298;2023-03-14T05:08:42;58042.09;;;0.28;100.00
7836;BME280;3963;42.658;23.298;2023-03-14T05:11:10;58053.50;;;0.34;100.00
7836;BME280;3963;42.658;23.298;2023-03-14T05:13:37;58053.94;;;0.32;100.00
7836;BME280;3963;42.658;23.298;2023-03-14T05:16:04;58068.78;;;0.20;100.00
7836;BME280;3963;42.658;23.298;2023-03-14T05:18:32;58077.78;;;0.45;100.00
7836;BME280;3963;42.658;23.298;2023-03-14T05:21:00;58075.53;;;0.38;100.00
7836;BME280;3963;42.658;23.298;2023-03-14T05:23:27;58070.59;;;0.43;100.00
7836;BME280;3963;42.658;23.298;2023-03-14T05:25:53;58099.47;;;0.39;100.00
7836;BME280;3963;42.658;23.298;2023-03-14T05:28:20;58092.88;;;0.55;100.00
7836;BME280;3963;42.658;23.298;2023-03-14T05:30:47;58118.59;;;0.63;100.00
7836;BME280;3963;42.658;23.298;2023-03-14T05:33:14;58105.31;;;0.77;100.00
7836;BME280;3963;42.658;23.298;2023-03-14T05:35:41;58084.47;;;0.79;100.00
7836;BME280;3963;42.658;23.298;2023-03-14T05:38:09;58110.00;;;0.96;100.00
7836;BME280;3963;42.658;23.298;2023-03-14T05:40:36;58149.69;;;1.09;100.00
7836;BME280;3963;42.658;23.298;2023-03-14T05:43:03;58206.25;;;1.25;100.00
7836;BME280;3963;42.658;23.298;2023-03-14T05:45:30;58186.84;;;1.23;100.00
7836;BME280;3963;42.658;23.298;2023-03-14T05:47:56;58165.28;;;1.34;100.00
7836;BME280;3963;42.658;23.298;2023-03-14T05:50:23;58196.97;;;1.52;100.00
7836;BME280;3963;42.658;23.298;2023-03-14T05:52:50;58226.78;;;1.59;100.00
7836;BME280;3963;42.658;23.298;2023-03-14T05:55:18;58264.47;;;1.88;100.00
7836;BME280;3963;42.658;23.298;2023-03-14T05:57:45;58256.44;;;1.92;100.00
7836;BME280;3963;42.658;23.298;2023-03-14T06:00:12;58263.31;;;1.99;100.00
7836;BME280;3963;42.658;23.298;2023-03-14T06:02:39;58285.00;;;2.22;100.00
7836;BME280;3963;42.658;23.298;2023-03-14T06:05:07;58330.75;;;2.32;100.00
7836;BME280;3963;42.658;23.298;2023-03-14T06:07:34;58301.22;;;2.18;100.00
7836;BME280;3963;42.658;23.298;2023-03-14T06:10:00;58272.50;;;2.30;100.00
7836;BME280;3963;42.658;23.298;2023-03-14T06:12:29;58347.66;;;2.33;100.00
7836;BME280;3963;42.658;23.298;2023-03-14T06:14:56;58320.63;;;2.34;100.00
7836;BME280;3963;42.658;23.298;2023-03-14T06:17:22;58335.06;;;2.38;100.00
7836;BME280;3963;42.658;23.298;2023-03-14T06:19:49;58352.22;;;2.47;100.00
7836;BME280;3963;42.658;23.298;2023-03-14T06:22:16;58330.72;;;2.61;100.00
7836;BME280;3963;42.658;23.298;2023-03-14T06:24:43;58383.81;;;2.60;100.00
7836;BME280;3963;42.658;23.298;2023-03-14T06:27:10;58318.63;;;2.66;100.00
7836;BME280;3963;42.658;23.298;2023-03-14T06:29:38;58336.69;;;2.71;99.80
7836;BME280;3963;42.658;23.298;2023-03-14T06:32:05;58361.66;;;2.86;99.49
7836;BME280;3963;42.658;23.298;2023-03-14T06:34:31;58405.13;;;2.86;97.15
7836;BME280;3963;42.658;23.298;2023-03-14T06:36:58;58360.28;;;2.74;95.96
7836;BME280;3963;42.658;23.298;2023-03-14T06:39:25;58371.72;;;2.81;94.73
7836;BME280;3963;42.658;23.298;2023-03-14T06:41:51;58394.78;;;2.98;91.86
7836;BME280;3963;42.658;23.298;2023-03-14T06:44:18;58425.78;;;3.08;85.48
7836;BME280;3963;42.658;23.298;2023-03-14T06:46:46;58470.66;;;3.19;80.71
7836;BME280;3963;42.658;23.298;2023-03-14T06:49:13;58446.94;;;3.28;80.36
7836;BME280;3963;42.658;23.298;2023-03-14T06:51:40;58431.06;;;3.27;80.10
7836;BME280;3963;42.658;23.298;2023-03-14T06:54:07;58425.56;;;3.32;80.46
7836;BME280;3963;42.658;23.298;2023-03-14T06:56:33;58452.72;;;3.48;80.37
7836;BME280;3963;42.658;23.298;2023-03-14T06:59:00;58452.63;;;3.46;79.10
7836;BME280;3963;42.658;23.298;2023-03-14T07:01:28;58457.03;;;3.55;79.78
7836;BME280;3963;42.658;23.298;2023-03-14T07:03:57;58447.88;;;3.73;79.29
7836;BME280;3963;42.658;23.298;2023-03-14T07:06:24;58461.72;;;3.74;78.10
7836;BME280;3963;42.658;23.298;2023-03-14T07:08:51;58521.09;;;3.89;78.01
7836;BME280;3963;42.658;23.298;2023-03-14T07:11:18;58540.78;;;3.96;76.58
7836;BME280;3963;42.658;23.298;2023-03-14T07:13:44;58509.50;;;4.10;76.45
7836;BME280;3963;42.658;23.298;2023-03-14T07:16:11;58536.25;;;4.13;75.43
7836;BME280;3963;42.658;23.298;2023-03-14T07:18:38;58550.19;;;4.17;76.57
7836;BME280;3963;42.658;23.298;2023-03-14T07:21:07;58529.91;;;4.07;75.49
7836;BME280;3963;42.658;23.298;2023-03-14T07:23:35;58557.25;;;4.14;75.40
7836;BME280;3963;42.658;23.298;2023-03-14T07:26:02;58546.44;;;4.28;73.44
7836;BME280;3963;42.658;23.298;2023-03-14T07:28:28;58570.19;;;4.33;73.66
7836;BME280;3963;42.658;23.298;2023-03-14T07:30:55;58550.41;;;4.39;73.44
7836;BME280;3963;42.658;23.298;2023-03-14T07:33:22;58574.69;;;4.45;72.96
7836;BME280;3963;42.658;23.298;2023-03-14T07:35:49;58614.44;;;4.54;72.70
7836;BME280;3963;42.658;23.298;2023-03-14T07:38:17;58605.69;;;4.53;72.58
7836;BME280;3963;42.658;23.298;2023-03-14T07:40:47;58595.13;;;4.74;70.52
7836;BME280;3963;42.658;23.298;2023-03-14T07:43:14;58652.56;;;4.90;69.66
7836;BME280;3963;42.658;23.298;2023-03-14T07:45:41;58646.63;;;4.96;70.21
7836;BME280;3963;42.658;23.298;2023-03-14T07:48:07;58636.97;;;4.99;69.86
7836;BME280;3963;42.658;23.298;2023-03-14T07:50:35;58677.03;;;5.01;69.03
7836;BME280;3963;42.658;23.298;2023-03-14T07:53:01;58641.03;;;5.13;68.36
7836;BME280;3963;42.658;23.298;2023-03-14T07:55:30;58691.16;;;5.24;66.42
7836;BME280;3963;42.658;23.298;2023-03-14T07:57:56;58752.44;;;5.46;66.37
7836;BME280;3963;42.658;23.298;2023-03-14T08:00:23;58724.97;;;5.54;64.64
7836;BME280;3963;42.658;23.298;2023-03-14T08:02:50;58736.09;;;5.65;63.62
7836;BME280;3963;42.658;23.298;2023-03-14T08:05:17;58759.66;;;5.63;63.51
7836;BME280;3963;42.658;23.298;2023-03-14T08:07:44;58751.25;;;5.72;63.28
7836;BME280;3963;42.658;23.298;2023-03-14T08:10:11;58792.75;;;5.84;64.24
7836;BME280;3963;42.658;23.298;2023-03-14T08:12:43;58768.72;;;6.03;63.75
7836;BME280;3963;42.658;23.298;2023-03-14T08:15:10;58819.53;;;6.32;64.78
7836;BME280;3963;42.658;23.298;2023-03-14T08:17:36;58814.63;;;6.39;61.57
7836;BME280;3963;42.658;23.298;2023-03-14T08:20:04;58825.69;;;6.47;61.55
7836;BME280;3963;42.658;23.298;2023-03-14T08:22:34;58901.34;;;6.80;61.04
7836;BME280;3963;42.658;23.298;2023-03-14T08:25:01;58907.50;;;7.10;59.84
7836;BME280;3963;42.658;23.298;2023-03-14T08:27:27;59039.03;;;7.79;57.78
7836;BME280;3963;42.658;23.298;2023-03-14T08:29:56;59081.38;;;8.12;54.36
7836;BME280;3963;42.658;23.298;2023-03-14T08:32:23;59155.66;;;8.89;52.07
7836;BME280;3963;42.658;23.298;2023-03-14T08:34:50;59233.88;;;9.44;51.42
7836;BME280;3963;42.658;23.298;2023-03-14T08:37:16;59232.94;;;9.63;50.18
7836;BME280;3963;42.658;23.298;2023-03-14T08:39:44;59368.13;;;10.15;48.21
7836;BME280;3963;42.658;23.298;2023-03-14T08:42:11;59279.97;;;9.78;48.02
7836;BME280;3963;42.658;23.298;2023-03-14T08:44:37;59357.81;;;10.32;46.46
7836;BME280;3963;42.658;23.298;2023-03-14T08:47:05;59438.91;;;10.89;45.75
7836;BME280;3963;42.658;23.298;2023-03-14T08:49:32;59526.94;;;11.64;43.86
7836;BME280;3963;42.658;23.298;2023-03-14T08:51:59;59612.66;;;12.31;42.82
7836;BME280;3963;42.658;23.298;2023-03-14T08:54:27;59634.56;;;12.34;42.02
7836;BME280;3963;42.658;23.298;2023-03-14T08:56:54;59643.91;;;12.33;41.05
7836;BME280;3963;42.658;23.298;2023-03-14T08:59:21;59733.97;;;13.32;39.82
7836;BME280;3963;42.658;23.298;2023-03-14T09:01:48;59815.41;;;13.90;37.92
7836;BME280;3963;42.658;23.298;2023-03-14T09:04:17;59772.66;;;13.22;38.94
7836;BME280;3963;42.658;23.298;2023-03-14T09:06:43;59732.94;;;13.02;38.73
7836;BME280;3963;42.658;23.298;2023-03-14T09:09:10;59649.59;;;12.48;39.58
7836;BME280;3963;42.658;23.298;2023-03-14T09:11:38;59605.53;;;12.19;39.80
7836;BME280;3963;42.658;23.298;2023-03-14T09:14:05;59784.50;;;13.51;38.15
7836;BME280;3963;42.658;23.298;2023-03-14T09:16:33;59987.78;;;14.66;35.13
7836;BME280;3963;42.658;23.298;2023-03-14T09:19:00;59948.56;;;14.31;34.33
7836;BME280;3963;42.658;23.298;2023-03-14T09:21:28;59988.38;;;14.83;34.60
7836;BME280;3963;42.658;23.298;2023-03-14T09:23:55;59973.19;;;14.81;34.52
7836;BME280;3963;42.658;23.298;2023-03-14T09:26:22;60010.53;;;15.07;35.50
7836;BME280;3963;42.658;23.298;2023-03-14T09:28:48;59916.13;;;14.43;35.40
7836;BME280;3963;42.658;23.298;2023-03-14T09:31:15;59944.22;;;14.57;34.15
7836;BME280;3963;42.658;23.298;2023-03-14T09:33:42;59870.16;;;13.92;34.95
7836;BME280;3963;42.658;23.298;2023-03-14T09:36:10;59958.13;;;14.67;34.42
7836;BME280;3963;42.658;23.298;2023-03-14T09:38:38;60084.94;;;15.47;33.39
7836;BME280;3963;42.658;23.298;2023-03-14T09:41:14;60078.72;;;15.48;32.84
7836;BME280;3963;42.658;23.298;2023-03-14T09:43:43;60094.34;;;15.63;32.76
7836;BME280;3963;42.658;23.298;2023-03-14T09:46:12;60043.50;;;15.25;33.42
7836;BME280;3963;42.658;23.298;2023-03-14T09:48:40;60016.47;;;14.98;34.71
7836;BME280;3963;42.658;23.298;2023-03-14T09:51:13;60216.28;;;16.48;31.84
7836;BME280;3963;42.658;23.298;2023-03-14T09:53:44;60158.59;;;16.11;31.03
7836;BME280;3963;42.658;23.298;2023-03-14T09:56:16;60254.66;;;16.69;31.13
7836;BME280;3963;42.658;23.298;2023-03-14T09:58:47;60253.53;;;16.83;30.75
7836;BME280;3963;42.658;23.298;2023-03-14T10:01:17;60264.72;;;16.88;30.38
7836;BME280;3963;42.658;23.298;2023-03-14T10:03:47;60155.84;;;16.06;31.43
7836;BME280;3963;42.658;23.298;2023-03-14T10:06:14;60130.00;;;15.67;32.44
7836;BME280;3963;42.658;23.298;2023-03-14T10:08:43;60125.47;;;15.73;32.29
7836;BME280;3963;42.658;23.298;2023-03-14T10:11:14;60139.03;;;16.20;32.21
7836;BME280;3963;42.658;23.298;2023-03-14T10:13:49;60292.78;;;17.14;30.54
7836;BME280;3963;42.658;23.298;2023-03-14T10:16:16;60299.47;;;17.11;29.98
7836;BME280;3963;42.658;23.298;2023-03-14T10:18:45;60110.97;;;15.76;31.92
7836;BME280;3963;42.658;23.298;2023-03-14T10:21:20;60178.97;;;16.11;31.90
7836;BME280;3963;42.658;23.298;2023-03-14T10:23:48;60228.72;;;16.59;31.21
7836;BME280;3963;42.658;23.298;2023-03-14T10:26:16;60299.56;;;17.13;30.69
7836;BME280;3963;42.658;23.298;2023-03-14T10:28:45;60253.09;;;16.38;31.02
7836;BME280;3963;42.658;23.298;2023-03-14T10:31:13;60224.28;;;16.53;31.10
7836;BME280;3963;42.658;23.298;2023-03-14T10:33:40;60324.28;;;17.17;30.54
7836;BME280;3963;42.658;23.298;2023-03-14T10:36:17;60385.59;;;17.50;30.62
7836;BME280;3963;42.658;23.298;2023-03-14T10:38:45;60268.69;;;16.82;30.82
7836;BME280;3963;42.658;23.298;2023-03-14T10:41:19;60272.97;;;16.69;31.28
7836;BME280;3963;42.658;23.298;2023-03-14T10:43:50;60146.69;;;15.97;32.35
7836;BME280;3963;42.658;23.298;2023-03-14T10:46:19;60297.03;;;16.84;31.73
7836;BME280;3963;42.658;23.298;2023-03-14T10:48:46;60323.34;;;17.21;31.48
7836;BME280;3963;42.658;23.298;2023-03-14T10:51:19;60374.47;;;17.61;31.90
7836;BME280;3963;42.658;23.298;2023-03-14T10:53:47;60311.06;;;17.61;31.34
7836;BME280;3963;42.658;23.298;2023-03-14T10:56:18;60435.47;;;17.84;30.85
7836;BME280;3963;42.658;23.298;2023-03-14T10:58:46;60322.44;;;16.93;31.16
7836;BME280;3963;42.658;23.298;2023-03-14T11:01:26;60289.22;;;17.01;32.39
7836;BME280;3963;42.658;23.298;2023-03-14T11:03:59;60348.31;;;17.47;31.00
7836;BME280;3963;42.658;23.298;2023-03-14T11:06:35;60413.09;;;17.73;31.05
7836;BME280;3963;42.658;23.298;2023-03-14T11:09:08;60230.91;;;16.79;32.35
7836;BME280;3963;42.658;23.298;2023-03-14T11:11:39;60308.53;;;17.00;32.55
7836;BME280;3963;42.658;23.298;2023-03-14T11:14:15;60375.31;;;17.55;31.69
7836;BME280;3963;42.658;23.298;2023-03-14T11:16:53;60356.69;;;17.62;31.49
7836;BME280;3963;42.658;23.298;2023-03-14T11:19:31;60294.84;;;16.82;32.63
7836;BME280;3963;42.658;23.298;2023-03-14T11:22:03;60234.22;;;16.52;33.44
7836;BME280;3963;42.658;23.298;2023-03-14T11:24:47;60246.84;;;16.54;33.33
7836;BME280;3963;42.658;23.298;2023-03-14T11:27:21;60238.38;;;16.83;33.21
7836;BME280;3963;42.658;23.298;2023-03-14T11:29:55;60341.44;;;17.13;32.60
7836;BME280;3963;42.658;23.298;2023-03-14T11:32:34;60306.28;;;16.95;33.13
7836;BME280;3963;42.658;23.298;2023-03-14T11:35:05;60295.84;;;16.81;33.17
7836;BME280;3963;42.658;23.298;2023-03-14T11:37:42;60254.66;;;16.69;33.60
7836;BME280;3963;42.658;23.298;2023-03-14T11:40:14;60293.75;;;16.96;32.94
7836;BME280;3963;42.658;23.298;2023-03-14T11:42:48;60273.97;;;16.99;32.98
7836;BME280;3963;42.658;23.298;2023-03-14T11:45:20;60273.63;;;16.89;33.36
7836;BME280;3963;42.658;23.298;2023-03-14T11:47:55;60366.22;;;17.66;32.68
7836;BME280;3963;42.658;23.298;2023-03-14T11:50:27;60366.84;;;17.69;32.04
7836;BME280;3963;42.658;23.298;2023-03-14T11:53:01;60381.72;;;17.44;32.56
7836;BME280;3963;42.658;23.298;2023-03-14T11:55:32;60400.13;;;17.61;32.16
7836;BME280;3963;42.658;23.298;2023-03-14T11:58:05;60280.81;;;17.01;32.17
7836;BME280;3963;42.658;23.298;2023-03-14T12:00:38;60265.16;;;16.54;33.50
7836;BME280;3963;42.658;23.298;2023-03-14T12:03:11;60287.81;;;16.90;33.51
7836;BME280;3963;42.658;23.298;2023-03-14T12:05:47;60316.34;;;17.14;32.46
7836;BME280;3963;42.658;23.298;2023-03-14T12:08:44;60309.00;;;16.83;32.49
7836;BME280;3963;42.658;23.298;2023-03-14T12:11:32;60219.34;;;16.46;33.59
7836;BME280;3963;42.658;23.298;2023-03-14T12:14:01;60274.66;;;16.73;34.08
7836;BME280;3963;42.658;23.298;2023-03-14T12:16:34;60315.00;;;17.06;33.25
7836;BME280;3963;42.658;23.298;2023-03-14T12:19:25;60302.22;;;16.99;32.55
7836;BME280;3963;42.658;23.298;2023-03-14T12:21:55;60288.84;;;16.74;32.86
7836;BME280;3963;42.658;23.298;2023-03-14T12:24:27;60244.03;;;16.49;33.23
7836;BME280;3963;42.658;23.298;2023-03-14T12:26:56;60294.84;;;16.82;32.98
7836;BME280;3963;42.658;23.298;2023-03-14T12:29:24;60271.03;;;16.89;32.47
7836;BME280;3963;42.658;23.298;2023-03-14T12:32:09;60295.59;;;16.73;32.60
7836;BME280;3963;42.658;23.298;2023-03-14T12:34:39;60246.56;;;16.62;32.68
7836;BME280;3963;42.658;23.298;2023-03-14T12:37:16;60256.84;;;16.56;32.73
7836;BME280;3963;42.658;23.298;2023-03-14T12:39:53;60226.72;;;16.16;33.40
7836;BME280;3963;42.658;23.298;2023-03-14T12:42:38;60199.13;;;16.20;33.52
7836;BME280;3963;42.658;23.298;2023-03-14T12:45:24;60188.63;;;16.02;33.81
7836;BME280;3963;42.658;23.298;2023-03-14T12:47:54;60153.94;;;15.80;33.77
7836;BME280;3963;42.658;23.298;2023-03-14T12:50:26;60155.44;;;15.79;33.73
7836;BME280;3963;42.658;23.298;2023-03-14T12:55:56;60135.38;;;15.72;33.56
7836;BME280;3963;42.658;23.298;2023-03-14T12:58:29;60144.47;;;15.78;33.59
7836;BME280;3963;42.658;23.298;2023-03-14T13:01:02;60132.50;;;15.79;33.74
7836;BME280;3963;42.658;23.298;2023-03-14T13:03:38;60129.06;;;15.71;34.00
7836;BME280;3963;42.658;23.298;2023-03-14T13:06:08;60131.41;;;15.78;33.57
7836;BME280;3963;42.658;23.298;2023-03-14T13:08:38;60139.91;;;15.67;33.44
7836;BME280;3963;42.658;23.298;2023-03-14T13:11:09;60159.50;;;15.75;33.56
7836;BME280;3963;42.658;23.298;2023-03-14T13:13:42;60144.19;;;15.85;33.87
7836;BME280;3963;42.658;23.298;2023-03-14T13:16:15;60182.78;;;15.99;33.37
7836;BME280;3963;42.658;23.298;2023-03-14T13:18:43;60185.13;;;16.07;33.55
7836;BME280;3963;42.658;23.298;2023-03-14T13:21:13;60161.81;;;15.97;33.68
7836;BME280;3963;42.658;23.298;2023-03-14T13:23:54;60161.81;;;15.97;33.65
7836;BME280;3963;42.658;23.298;2023-03-14T13:26:21;60151.09;;;15.89;33.72
7836;BME280;3963;42.658;23.298;2023-03-14T13:28:49;60145.88;;;15.89;33.18